首页
METAR-TAF:

METAR-TAF

机场 :

Dodge County Airport

朱諾, 威斯康辛州, 美国

纬度: 43-25-36N, 经度: 088-42-12W, 海拔: 285米

当前天气观测

该预报发布于17分钟前的00:15 UTC
风速12节,风向南转南东
温度 0°C
湿度 86%
气压 1020 hPa
能見度: 16.1公里
天空无云

METAR: KUNU 080015Z AUTO 16012KT 10SM CLR 00/M02 A3013 RMK AO2 T00001022

时间: 18:32 (00:32 UTC)


TAF: 丢失

超过4000个机场的气象观测和天气预报(METAR&TAF报告)。

可查询的气象台以黄色和红色小点在地图上表示。

将鼠标移到小点上方,可查看气象台名称。

然后点击查看天气观测和预报。

如需切换地图:点击带黑十字的绿色按钮放大地图;点击带横线的绿色按钮缩小地图;或者点击绿色箭头查看邻近地区的地图。


METAR-TAF: